sensor_id;sensor_type;location;lat;lon;timestamp;P1;durP1;ratioP1;P2;durP2;ratioP2
49458;SDS011;35354;51.296;16.924;2023-08-07T00:01:50;7.00;;;6.40;;
49458;SDS011;35354;51.296;16.924;2023-08-07T00:04:16;7.40;;;6.60;;
49458;SDS011;35354;51.296;16.924;2023-08-07T00:06:41;6.93;;;6.22;;
49458;SDS011;35354;51.296;16.924;2023-08-07T00:09:06;7.78;;;6.97;;
49458;SDS011;35354;51.296;16.924;2023-08-07T00:11:32;8.88;;;7.97;;
49458;SDS011;35354;51.296;16.924;2023-08-07T00:13:57;9.63;;;7.93;;
49458;SDS011;35354;51.296;16.924;2023-08-07T00:16:23;8.80;;;7.90;;
49458;SDS011;35354;51.296;16.924;2023-08-07T00:18:49;9.13;;;7.10;;
49458;SDS011;35354;51.296;16.924;2023-08-07T00:21:14;8.00;;;7.20;;
49458;SDS011;35354;51.296;16.924;2023-08-07T00:23:39;8.88;;;7.38;;
49458;SDS011;35354;51.296;16.924;2023-08-07T00:26:05;7.57;;;6.85;;
49458;SDS011;35354;51.296;16.924;2023-08-07T00:28:30;7.82;;;7.13;;
49458;SDS011;35354;51.296;16.924;2023-08-07T00:30:56;8.05;;;7.22;;
49458;SDS011;35354;51.296;16.924;2023-08-07T00:33:21;8.27;;;7.47;;
49458;SDS011;35354;51.296;16.924;2023-08-07T00:35:47;7.90;;;7.10;;
49458;SDS011;35354;51.296;16.924;2023-08-07T00:38:13;8.00;;;7.20;;
49458;SDS011;35354;51.296;16.924;2023-08-07T00:40:39;8.38;;;7.45;;
49458;SDS011;35354;51.296;16.924;2023-08-07T00:43:05;7.25;;;6.55;;
49458;SDS011;35354;51.296;16.924;2023-08-07T00:45:36;7.03;;;6.38;;
49458;SDS011;35354;51.296;16.924;2023-08-07T00:48:06;7.70;;;7.00;;
49458;SDS011;35354;51.296;16.924;2023-08-07T00:50:32;7.20;;;6.50;;
49458;SDS011;35354;51.296;16.924;2023-08-07T00:52:57;6.93;;;6.13;;
49458;SDS011;35354;51.296;16.924;2023-08-07T00:55:23;7.45;;;6.53;;
49458;SDS011;35354;51.296;16.924;2023-08-07T00:57:49;8.48;;;6.68;;
49458;SDS011;35354;51.296;16.924;2023-08-07T01:00:14;8.20;;;7.25;;
49458;SDS011;35354;51.296;16.924;2023-08-07T01:02:41;7.60;;;6.80;;
49458;SDS011;35354;51.296;16.924;2023-08-07T01:05:06;7.72;;;7.03;;
49458;SDS011;35354;51.296;16.924;2023-08-07T01:07:32;6.72;;;6.10;;
49458;SDS011;35354;51.296;16.924;2023-08-07T01:09:57;7.60;;;6.15;;
49458;SDS011;35354;51.296;16.924;2023-08-07T01:12:29;7.33;;;6.63;;
49458;SDS011;35354;51.296;16.924;2023-08-07T01:15:19;6.57;;;5.97;;
49458;SDS011;35354;51.296;16.924;2023-08-07T01:17:46;9.07;;;6.57;;
49458;SDS011;35354;51.296;16.924;2023-08-07T01:20:13;7.47;;;6.75;;
49458;SDS011;35354;51.296;16.924;2023-08-07T01:22:39;8.55;;;7.57;;
49458;SDS011;35354;51.296;16.924;2023-08-07T01:25:04;8.88;;;7.72;;
49458;SDS011;35354;51.296;16.924;2023-08-07T01:30:26;9.23;;;7.78;;
49458;SDS011;35354;51.296;16.924;2023-08-07T01:35:33;9.18;;;6.72;;
49458;SDS011;35354;51.296;16.924;2023-08-07T01:40:30;8.00;;;6.20;;
49458;SDS011;35354;51.296;16.924;2023-08-07T01:42:56;7.28;;;6.60;;
49458;SDS011;35354;51.296;16.924;2023-08-07T01:45:22;6.85;;;6.25;;
49458;SDS011;35354;51.296;16.924;2023-08-07T01:47:49;6.78;;;6.10;;
49458;SDS011;35354;51.296;16.924;2023-08-07T01:50:14;6.90;;;6.30;;
49458;SDS011;35354;51.296;16.924;2023-08-07T01:52:39;7.22;;;6.53;;
49458;SDS011;35354;51.296;16.924;2023-08-07T01:55:05;9.25;;;6.57;;
49458;SDS011;35354;51.296;16.924;2023-08-07T01:57:30;7.22;;;6.53;;
49458;SDS011;35354;51.296;16.924;2023-08-07T01:59:56;7.72;;;7.03;;
49458;SDS011;35354;51.296;16.924;2023-08-07T02:02:21;7.05;;;6.35;;
49458;SDS011;35354;51.296;16.924;2023-08-07T02:04:46;7.10;;;6.47;;
49458;SDS011;35354;51.296;16.924;2023-08-07T02:07:12;6.78;;;6.07;;
49458;SDS011;35354;51.296;16.924;2023-08-07T02:09:37;7.30;;;6.60;;
49458;SDS011;35354;51.296;16.924;2023-08-07T02:12:03;9.68;;;6.68;;
49458;SDS011;35354;51.296;16.924;2023-08-07T02:14:28;8.05;;;6.40;;
49458;SDS011;35354;51.296;16.924;2023-08-07T02:16:54;7.05;;;6.32;;
49458;SDS011;35354;51.296;16.924;2023-08-07T02:19:19;7.32;;;6.63;;
49458;SDS011;35354;51.296;16.924;2023-08-07T02:21:44;6.43;;;5.82;;
49458;SDS011;35354;51.296;16.924;2023-08-07T02:24:09;7.50;;;6.80;;
49458;SDS011;35354;51.296;16.924;2023-08-07T02:26:35;8.27;;;7.03;;
49458;SDS011;35354;51.296;16.924;2023-08-07T02:29:00;8.13;;;7.32;;
49458;SDS011;35354;51.296;16.924;2023-08-07T02:31:27;8.32;;;7.40;;
49458;SDS011;35354;51.296;16.924;2023-08-07T02:33:52;10.98;;;7.97;;
49458;SDS011;35354;51.296;16.924;2023-08-07T02:36:17;10.35;;;9.30;;
49458;SDS011;35354;51.296;16.924;2023-08-07T02:38:43;9.02;;;8.20;;
49458;SDS011;35354;51.296;16.924;2023-08-07T02:41:08;9.73;;;8.73;;
49458;SDS011;35354;51.296;16.924;2023-08-07T02:43:33;10.45;;;9.32;;
49458;SDS011;35354;51.296;16.924;2023-08-07T02:45:59;10.25;;;9.18;;
49458;SDS011;35354;51.296;16.924;2023-08-07T02:48:25;9.23;;;8.32;;
49458;SDS011;35354;51.296;16.924;2023-08-07T02:50:50;10.98;;;9.13;;
49458;SDS011;35354;51.296;16.924;2023-08-07T02:53:16;11.48;;;9.18;;
49458;SDS011;35354;51.296;16.924;2023-08-07T02:55:43;10.52;;;9.45;;
49458;SDS011;35354;51.296;16.924;2023-08-07T02:58:08;10.35;;;8.07;;
49458;SDS011;35354;51.296;16.924;2023-08-07T03:00:34;9.57;;;8.68;;
49458;SDS011;35354;51.296;16.924;2023-08-07T03:03:00;9.57;;;7.97;;
49458;SDS011;35354;51.296;16.924;2023-08-07T03:05:25;9.27;;;8.38;;
49458;SDS011;35354;51.296;16.924;2023-08-07T03:07:51;9.77;;;8.82;;
49458;SDS011;35354;51.296;16.924;2023-08-07T03:10:16;10.23;;;8.93;;
49458;SDS011;35354;51.296;16.924;2023-08-07T03:12:41;9.18;;;7.93;;
49458;SDS011;35354;51.296;16.924;2023-08-07T03:15:07;10.02;;;9.07;;
49458;SDS011;35354;51.296;16.924;2023-08-07T03:17:33;10.90;;;9.80;;
49458;SDS011;35354;51.296;16.924;2023-08-07T03:19:58;9.35;;;8.45;;
49458;SDS011;35354;51.296;16.924;2023-08-07T03:22:24;10.80;;;9.70;;
49458;SDS011;35354;51.296;16.924;2023-08-07T03:24:49;11.98;;;8.90;;
49458;SDS011;35354;51.296;16.924;2023-08-07T03:27:14;10.32;;;9.10;;
49458;SDS011;35354;51.296;16.924;2023-08-07T03:29:40;9.82;;;8.82;;
49458;SDS011;35354;51.296;16.924;2023-08-07T03:32:05;9.40;;;8.43;;
49458;SDS011;35354;51.296;16.924;2023-08-07T03:34:31;9.23;;;8.38;;
49458;SDS011;35354;51.296;16.924;2023-08-07T03:36:56;9.50;;;8.50;;
49458;SDS011;35354;51.296;16.924;2023-08-07T03:39:24;10.18;;;9.18;;
49458;SDS011;35354;51.296;16.924;2023-08-07T03:41:49;9.52;;;8.02;;
49458;SDS011;35354;51.296;16.924;2023-08-07T03:44:15;9.45;;;8.45;;
49458;SDS011;35354;51.296;16.924;2023-08-07T03:46:40;9.73;;;8.38;;
49458;SDS011;35354;51.296;16.924;2023-08-07T03:49:05;11.48;;;9.82;;
49458;SDS011;35354;51.296;16.924;2023-08-07T03:51:31;9.65;;;8.55;;
49458;SDS011;35354;51.296;16.924;2023-08-07T03:53:57;10.68;;;9.30;;
49458;SDS011;35354;51.296;16.924;2023-08-07T03:56:22;10.88;;;9.15;;
49458;SDS011;35354;51.296;16.924;2023-08-07T03:58:48;10.57;;;9.57;;
49458;SDS011;35354;51.296;16.924;2023-08-07T04:01:14;10.23;;;9.20;;
49458;SDS011;35354;51.296;16.924;2023-08-07T04:03:40;11.13;;;8.63;;
49458;SDS011;35354;51.296;16.924;2023-08-07T04:06:05;10.23;;;8.90;;
49458;SDS011;35354;51.296;16.924;2023-08-07T04:08:31;9.38;;;8.48;;
49458;SDS011;35354;51.296;16.924;2023-08-07T04:11:05;9.73;;;8.80;;
49458;SDS011;35354;51.296;16.924;2023-08-07T04:13:31;9.30;;;8.38;;
49458;SDS011;35354;51.296;16.924;2023-08-07T04:15:57;11.00;;;8.50;;
49458;SDS011;35354;51.296;16.924;2023-08-07T04:18:22;8.52;;;7.75;;
49458;SDS011;35354;51.296;16.924;2023-08-07T04:20:48;8.70;;;7.80;;
49458;SDS011;35354;51.296;16.924;2023-08-07T04:23:21;9.18;;;8.25;;
49458;SDS011;35354;51.296;16.924;2023-08-07T04:25:47;8.63;;;7.78;;
49458;SDS011;35354;51.296;16.924;2023-08-07T04:28:13;9.05;;;8.15;;
49458;SDS011;35354;51.296;16.924;2023-08-07T04:30:38;9.73;;;8.73;;
49458;SDS011;35354;51.296;16.924;2023-08-07T04:33:04;8.90;;;7.82;;
49458;SDS011;35354;51.296;16.924;2023-08-07T04:35:30;7.97;;;7.18;;
49458;SDS011;35354;51.296;16.924;2023-08-07T04:37:55;7.22;;;6.53;;
49458;SDS011;35354;51.296;16.924;2023-08-07T04:40:21;9.20;;;7.57;;
49458;SDS011;35354;51.296;16.924;2023-08-07T04:42:46;7.07;;;6.38;;
49458;SDS011;35354;51.296;16.924;2023-08-07T04:45:13;7.25;;;6.55;;
49458;SDS011;35354;51.296;16.924;2023-08-07T04:47:39;7.25;;;6.53;;
49458;SDS011;35354;51.296;16.924;2023-08-07T04:50:04;6.88;;;6.28;;
49458;SDS011;35354;51.296;16.924;2023-08-07T04:52:30;7.10;;;6.38;;
49458;SDS011;35354;51.296;16.924;2023-08-07T04:54:55;6.75;;;6.07;;
49458;SDS011;35354;51.296;16.924;2023-08-07T04:57:20;6.50;;;6.00;;
49458;SDS011;35354;51.296;16.924;2023-08-07T04:59:46;6.88;;;6.10;;
49458;SDS011;35354;51.296;16.924;2023-08-07T05:02:11;7.15;;;6.45;;
49458;SDS011;35354;51.296;16.924;2023-08-07T05:04:36;6.47;;;5.88;;
49458;SDS011;35354;51.296;16.924;2023-08-07T05:07:02;5.95;;;5.45;;
49458;SDS011;35354;51.296;16.924;2023-08-07T05:09:27;6.40;;;5.80;;
49458;SDS011;35354;51.296;16.924;2023-08-07T05:11:53;5.70;;;5.20;;
49458;SDS011;35354;51.296;16.924;2023-08-07T05:14:18;5.47;;;4.97;;
49458;SDS011;35354;51.296;16.924;2023-08-07T05:16:43;6.05;;;5.55;;
49458;SDS011;35354;51.296;16.924;2023-08-07T05:19:09;6.15;;;5.28;;
49458;SDS011;35354;51.296;16.924;2023-08-07T05:21:34;6.35;;;5.72;;
49458;SDS011;35354;51.296;16.924;2023-08-07T05:23:59;6.35;;;5.75;;
49458;SDS011;35354;51.296;16.924;2023-08-07T05:26:25;6.30;;;5.70;;
49458;SDS011;35354;51.296;16.924;2023-08-07T05:28:50;6.32;;;5.70;;
49458;SDS011;35354;51.296;16.924;2023-08-07T05:31:15;7.03;;;6.43;;
49458;SDS011;35354;51.296;16.924;2023-08-07T05:33:41;6.18;;;5.57;;
49458;SDS011;35354;51.296;16.924;2023-08-07T05:36:06;7.07;;;6.38;;
49458;SDS011;35354;51.296;16.924;2023-08-07T05:38:32;7.50;;;6.80;;
49458;SDS011;35354;51.296;16.924;2023-08-07T05:40:57;6.53;;;5.95;;
49458;SDS011;35354;51.296;16.924;2023-08-07T05:43:22;6.38;;;5.78;;
49458;SDS011;35354;51.296;16.924;2023-08-07T05:45:48;6.40;;;5.80;;
49458;SDS011;35354;51.296;16.924;2023-08-07T05:48:14;6.90;;;5.88;;
49458;SDS011;35354;51.296;16.924;2023-08-07T05:50:41;6.60;;;6.00;;
49458;SDS011;35354;51.296;16.924;2023-08-07T05:53:07;6.18;;;5.68;;
49458;SDS011;35354;51.296;16.924;2023-08-07T05:55:32;7.60;;;5.95;;
49458;SDS011;35354;51.296;16.924;2023-08-07T05:57:58;5.15;;;4.65;;
49458;SDS011;35354;51.296;16.924;2023-08-07T06:00:23;5.70;;;5.10;;
49458;SDS011;35354;51.296;16.924;2023-08-07T06:02:50;7.15;;;5.75;;
49458;SDS011;35354;51.296;16.924;2023-08-07T06:05:15;6.07;;;5.35;;
49458;SDS011;35354;51.296;16.924;2023-08-07T06:07:41;5.47;;;4.97;;
49458;SDS011;35354;51.296;16.924;2023-08-07T06:10:06;5.88;;;5.28;;
49458;SDS011;35354;51.296;16.924;2023-08-07T06:12:32;5.20;;;4.70;;
49458;SDS011;35354;51.296;16.924;2023-08-07T06:14:58;4.70;;;4.30;;
49458;SDS011;35354;51.296;16.924;2023-08-07T06:17:23;5.45;;;4.30;;
49458;SDS011;35354;51.296;16.924;2023-08-07T06:19:48;5.47;;;4.85;;
49458;SDS011;35354;51.296;16.924;2023-08-07T06:22:14;5.43;;;4.28;;
49458;SDS011;35354;51.296;16.924;2023-08-07T06:24:39;4.88;;;4.47;;
49458;SDS011;35354;51.296;16.924;2023-08-07T06:27:04;4.97;;;4.50;;
49458;SDS011;35354;51.296;16.924;2023-08-07T06:29:30;4.55;;;4.15;;
49458;SDS011;35354;51.296;16.924;2023-08-07T06:31:55;6.82;;;4.57;;
49458;SDS011;35354;51.296;16.924;2023-08-07T06:34:20;5.35;;;4.10;;
49458;SDS011;35354;51.296;16.924;2023-08-07T06:36:49;4.40;;;4.00;;
49458;SDS011;35354;51.296;16.924;2023-08-07T06:39:15;4.68;;;4.28;;
49458;SDS011;35354;51.296;16.924;2023-08-07T06:41:40;4.10;;;3.70;;
49458;SDS011;35354;51.296;16.924;2023-08-07T06:44:05;4.97;;;4.55;;
49458;SDS011;35354;51.296;16.924;2023-08-07T06:46:31;4.88;;;4.15;;
49458;SDS011;35354;51.296;16.924;2023-08-07T06:48:56;4.55;;;4.15;;
49458;SDS011;35354;51.296;16.924;2023-08-07T06:51:21;5.60;;;3.83;;
49458;SDS011;35354;51.296;16.924;2023-08-07T06:53:47;4.32;;;3.92;;
49458;SDS011;35354;51.296;16.924;2023-08-07T06:56:12;3.97;;;3.67;;
49458;SDS011;35354;51.296;16.924;2023-08-07T06:58:37;4.55;;;4.15;;
49458;SDS011;35354;51.296;16.924;2023-08-07T07:01:03;4.18;;;3.35;;
49458;SDS011;35354;51.296;16.924;2023-08-07T07:03:28;5.63;;;3.10;;
49458;SDS011;35354;51.296;16.924;2023-08-07T07:05:53;4.88;;;3.58;;
49458;SDS011;35354;51.296;16.924;2023-08-07T07:08:20;5.35;;;3.40;;
49458;SDS011;35354;51.296;16.924;2023-08-07T07:10:45;3.40;;;3.10;;
49458;SDS011;35354;51.296;16.924;2023-08-07T07:13:11;4.93;;;3.65;;
49458;SDS011;35354;51.296;16.924;2023-08-07T07:15:36;3.75;;;3.30;;
49458;SDS011;35354;51.296;16.924;2023-08-07T07:18:01;3.45;;;3.15;;
49458;SDS011;35354;51.296;16.924;2023-08-07T07:20:27;3.30;;;3.00;;
49458;SDS011;35354;51.296;16.924;2023-08-07T07:22:52;5.25;;;3.13;;
49458;SDS011;35354;51.296;16.924;2023-08-07T07:25:18;3.22;;;2.92;;
49458;SDS011;35354;51.296;16.924;2023-08-07T07:27:43;2.88;;;2.45;;
49458;SDS011;35354;51.296;16.924;2023-08-07T07:30:09;3.38;;;3.00;;
49458;SDS011;35354;51.296;16.924;2023-08-07T07:32:35;4.18;;;2.70;;
49458;SDS011;35354;51.296;16.924;2023-08-07T07:35:00;4.55;;;3.45;;
49458;SDS011;35354;51.296;16.924;2023-08-07T07:37:25;3.60;;;3.00;;
49458;SDS011;35354;51.296;16.924;2023-08-07T07:39:51;3.22;;;2.97;;
49458;SDS011;35354;51.296;16.924;2023-08-07T07:42:16;3.22;;;2.88;;
49458;SDS011;35354;51.296;16.924;2023-08-07T07:44:41;2.92;;;2.55;;
49458;SDS011;35354;51.296;16.924;2023-08-07T07:47:07;4.60;;;2.80;;
49458;SDS011;35354;51.296;16.924;2023-08-07T07:49:33;4.00;;;2.50;;
49458;SDS011;35354;51.296;16.924;2023-08-07T07:51:58;2.80;;;2.60;;
49458;SDS011;35354;51.296;16.924;2023-08-07T07:54:24;4.32;;;2.95;;
49458;SDS011;35354;51.296;16.924;2023-08-07T07:56:49;4.88;;;2.90;;
49458;SDS011;35354;51.296;16.924;2023-08-07T07:59:15;3.03;;;2.72;;
49458;SDS011;35354;51.296;16.924;2023-08-07T08:01:41;3.30;;;3.00;;
49458;SDS011;35354;51.296;16.924;2023-08-07T08:04:06;3.55;;;2.78;;
49458;SDS011;35354;51.296;16.924;2023-08-07T08:06:32;3.85;;;2.95;;
49458;SDS011;35354;51.296;16.924;2023-08-07T08:08:57;2.92;;;2.63;;
49458;SDS011;35354;51.296;16.924;2023-08-07T08:11:23;3.20;;;2.90;;
49458;SDS011;35354;51.296;16.924;2023-08-07T08:13:48;3.28;;;2.88;;
49458;SDS011;35354;51.296;16.924;2023-08-07T08:16:14;4.90;;;3.38;;
49458;SDS011;35354;51.296;16.924;2023-08-07T08:18:39;3.60;;;3.20;;
49458;SDS011;35354;51.296;16.924;2023-08-07T08:21:05;4.93;;;3.88;;
49458;SDS011;35354;51.296;16.924;2023-08-07T08:23:31;3.78;;;3.30;;
49458;SDS011;35354;51.296;16.924;2023-08-07T08:25:57;5.38;;;3.85;;
49458;SDS011;35354;51.296;16.924;2023-08-07T08:28:22;3.35;;;3.05;;
49458;SDS011;35354;51.296;16.924;2023-08-07T08:30:47;4.18;;;3.30;;
49458;SDS011;35354;51.296;16.924;2023-08-07T08:33:13;5.55;;;3.72;;
49458;SDS011;35354;51.296;16.924;2023-08-07T08:35:39;3.60;;;3.30;;
49458;SDS011;35354;51.296;16.924;2023-08-07T08:38:05;4.15;;;3.22;;
49458;SDS011;35354;51.296;16.924;2023-08-07T08:40:31;5.28;;;3.70;;
49458;SDS011;35354;51.296;16.924;2023-08-07T08:42:59;6.13;;;3.88;;
49458;SDS011;35354;51.296;16.924;2023-08-07T08:45:26;5.90;;;4.10;;
49458;SDS011;35354;51.296;16.924;2023-08-07T08:47:57;4.65;;;3.70;;
49458;SDS011;35354;51.296;16.924;2023-08-07T08:50:26;4.72;;;4.28;;
49458;SDS011;35354;51.296;16.924;2023-08-07T08:52:53;5.65;;;3.70;;
49458;SDS011;35354;51.296;16.924;2023-08-07T08:55:20;4.68;;;4.20;;
49458;SDS011;35354;51.296;16.924;2023-08-07T08:57:46;3.80;;;3.50;;
49458;SDS011;35354;51.296;16.924;2023-08-07T09:00:13;4.20;;;3.75;;
49458;SDS011;35354;51.296;16.924;2023-08-07T09:02:46;4.17;;;3.77;;
49458;SDS011;35354;51.296;16.924;2023-08-07T09:05:16;4.15;;;3.25;;
49458;SDS011;35354;51.296;16.924;2023-08-07T09:07:45;3.78;;;3.47;;
49458;SDS011;35354;51.296;16.924;2023-08-07T09:10:12;5.78;;;3.78;;
49458;SDS011;35354;51.296;16.924;2023-08-07T09:13:00;5.45;;;3.63;;
49458;SDS011;35354;51.296;16.924;2023-08-07T09:15:32;6.45;;;3.63;;
49458;SDS011;35354;51.296;16.924;2023-08-07T09:17:58;4.38;;;3.42;;
49458;SDS011;35354;51.296;16.924;2023-08-07T09:20:27;3.92;;;3.05;;
49458;SDS011;35354;51.296;16.924;2023-08-07T09:22:53;6.18;;;3.13;;
49458;SDS011;35354;51.296;16.924;2023-08-07T09:25:26;5.05;;;2.97;;
49458;SDS011;35354;51.296;16.924;2023-08-07T09:27:56;3.45;;;2.80;;
49458;SDS011;35354;51.296;16.924;2023-08-07T09:30:28;3.67;;;2.30;;
49458;SDS011;35354;51.296;16.924;2023-08-07T09:32:55;2.85;;;2.45;;
49458;SDS011;35354;51.296;16.924;2023-08-07T09:35:22;4.68;;;2.70;;
49458;SDS011;35354;51.296;16.924;2023-08-07T09:37:48;2.83;;;2.40;;
49458;SDS011;35354;51.296;16.924;2023-08-07T09:40:13;3.05;;;2.72;;
49458;SDS011;35354;51.296;16.924;2023-08-07T09:42:40;3.33;;;2.70;;
49458;SDS011;35354;51.296;16.924;2023-08-07T09:48:00;3.08;;;2.78;;
49458;SDS011;35354;51.296;16.924;2023-08-07T09:50:27;3.17;;;2.70;;
49458;SDS011;35354;51.296;16.924;2023-08-07T09:52:53;4.03;;;2.72;;
49458;SDS011;35354;51.296;16.924;2023-08-07T09:55:26;4.65;;;2.58;;
49458;SDS011;35354;51.296;16.924;2023-08-07T09:57:52;4.72;;;2.95;;
49458;SDS011;35354;51.296;16.924;2023-08-07T10:00:18;2.95;;;2.67;;
49458;SDS011;35354;51.296;16.924;2023-08-07T10:02:47;5.07;;;3.00;;
49458;SDS011;35354;51.296;16.924;2023-08-07T10:05:14;3.33;;;2.92;;
49458;SDS011;35354;51.296;16.924;2023-08-07T10:07:40;4.03;;;2.60;;
49458;SDS011;35354;51.296;16.924;2023-08-07T10:10:06;2.75;;;2.50;;
49458;SDS011;35354;51.296;16.924;2023-08-07T10:12:33;3.30;;;2.90;;
49458;SDS011;35354;51.296;16.924;2023-08-07T10:14:59;3.67;;;2.83;;
49458;SDS011;35354;51.296;16.924;2023-08-07T10:17:25;5.13;;;3.33;;
49458;SDS011;35354;51.296;16.924;2023-08-07T10:19:51;3.00;;;2.70;;
49458;SDS011;35354;51.296;16.924;2023-08-07T10:22:18;3.97;;;2.80;;
49458;SDS011;35354;51.296;16.924;2023-08-07T10:24:44;2.95;;;2.40;;
49458;SDS011;35354;51.296;16.924;2023-08-07T10:27:13;5.70;;;2.90;;
49458;SDS011;35354;51.296;16.924;2023-08-07T10:29:41;4.32;;;2.97;;
49458;SDS011;35354;51.296;16.924;2023-08-07T10:32:09;4.05;;;2.85;;
49458;SDS011;35354;51.296;16.924;2023-08-07T10:34:36;4.65;;;2.78;;
49458;SDS011;35354;51.296;16.924;2023-08-07T10:37:02;3.33;;;2.92;;
49458;SDS011;35354;51.296;16.924;2023-08-07T10:39:27;5.45;;;2.75;;
49458;SDS011;35354;51.296;16.924;2023-08-07T10:41:53;2.90;;;2.60;;
49458;SDS011;35354;51.296;16.924;2023-08-07T10:44:20;3.15;;;2.85;;
49458;SDS011;35354;51.296;16.924;2023-08-07T10:46:51;4.43;;;2.72;;
49458;SDS011;35354;51.296;16.924;2023-08-07T10:49:34;2.55;;;2.35;;
49458;SDS011;35354;51.296;16.924;2023-08-07T10:52:02;3.72;;;2.40;;
49458;SDS011;35354;51.296;16.924;2023-08-07T10:57:14;3.10;;;2.55;;
49458;SDS011;35354;51.296;16.924;2023-08-07T10:59:49;2.45;;;2.17;;
49458;SDS011;35354;51.296;16.924;2023-08-07T11:02:22;2.30;;;2.10;;
49458;SDS011;35354;51.296;16.924;2023-08-07T11:04:50;2.40;;;2.20;;
49458;SDS011;35354;51.296;16.924;2023-08-07T11:07:24;2.83;;;2.38;;
49458;SDS011;35354;51.296;16.924;2023-08-07T11:09:51;2.60;;;2.40;;
49458;SDS011;35354;51.296;16.924;2023-08-07T11:12:16;2.97;;;2.50;;
49458;SDS011;35354;51.296;16.924;2023-08-07T11:14:41;2.97;;;2.67;;
49458;SDS011;35354;51.296;16.924;2023-08-07T11:17:07;2.95;;;2.20;;
49458;SDS011;35354;51.296;16.924;2023-08-07T11:19:33;5.28;;;2.60;;
49458;SDS011;35354;51.296;16.924;2023-08-07T11:21:58;4.25;;;2.53;;
49458;SDS011;35354;51.296;16.924;2023-08-07T11:24:26;3.47;;;2.28;;
49458;SDS011;35354;51.296;16.924;2023-08-07T11:26:52;3.22;;;2.55;;
49458;SDS011;35354;51.296;16.924;2023-08-07T11:29:20;3.25;;;2.30;;
49458;SDS011;35354;51.296;16.924;2023-08-07T11:31:47;2.63;;;2.22;;
49458;SDS011;35354;51.296;16.924;2023-08-07T11:34:12;6.47;;;2.92;;
49458;SDS011;35354;51.296;16.924;2023-08-07T11:36:41;3.42;;;2.40;;
49458;SDS011;35354;51.296;16.924;2023-08-07T11:39:08;2.42;;;2.17;;
49458;SDS011;35354;51.296;16.924;2023-08-07T11:41:33;2.83;;;2.38;;
49458;SDS011;35354;51.296;16.924;2023-08-07T11:43:58;4.53;;;2.95;;
49458;SDS011;35354;51.296;16.924;2023-08-07T11:46:24;4.32;;;2.65;;
49458;SDS011;35354;51.296;16.924;2023-08-07T11:48:50;3.63;;;2.55;;
49458;SDS011;35354;51.296;16.924;2023-08-07T11:51:17;3.38;;;2.85;;
49458;SDS011;35354;51.296;16.924;2023-08-07T11:53:45;3.33;;;3.03;;
49458;SDS011;35354;51.296;16.924;2023-08-07T11:56:11;4.43;;;2.90;;
49458;SDS011;35354;51.296;16.924;2023-08-07T11:58:41;3.72;;;2.97;;
49458;SDS011;35354;51.296;16.924;2023-08-07T12:01:12;4.28;;;3.38;;
49458;SDS011;35354;51.296;16.924;2023-08-07T12:03:41;4.03;;;2.95;;
49458;SDS011;35354;51.296;16.924;2023-08-07T12:06:08;2.60;;;2.40;;
49458;SDS011;35354;51.296;16.924;2023-08-07T12:08:35;2.58;;;2.38;;
49458;SDS011;35354;51.296;16.924;2023-08-07T12:11:04;3.15;;;2.30;;
49458;SDS011;35354;51.296;16.924;2023-08-07T12:13:37;3.55;;;2.30;;
49458;SDS011;35354;51.296;16.924;2023-08-07T12:16:04;4.15;;;2.50;;
49458;SDS011;35354;51.296;16.924;2023-08-07T12:18:30;3.20;;;2.53;;
49458;SDS011;35354;51.296;16.924;2023-08-07T12:20:57;3.58;;;2.60;;
49458;SDS011;35354;51.296;16.924;2023-08-07T12:23:24;2.40;;;2.20;;
49458;SDS011;35354;51.296;16.924;2023-08-07T12:25:50;2.58;;;2.38;;
49458;SDS011;35354;51.296;16.924;2023-08-07T12:28:17;5.18;;;2.35;;
49458;SDS011;35354;51.296;16.924;2023-08-07T12:30:44;3.10;;;2.30;;
49458;SDS011;35354;51.296;16.924;2023-08-07T12:33:11;2.45;;;2.08;;
49458;SDS011;35354;51.296;16.924;2023-08-07T12:35:36;3.85;;;2.50;;
49458;SDS011;35354;51.296;16.924;2023-08-07T12:38:01;5.07;;;3.05;;
49458;SDS011;35354;51.296;16.924;2023-08-07T12:40:28;3.50;;;2.80;;
49458;SDS011;35354;51.296;16.924;2023-08-07T12:42:54;3.22;;;2.47;;
49458;SDS011;35354;51.296;16.924;2023-08-07T12:45:19;2.72;;;2.50;;
49458;SDS011;35354;51.296;16.924;2023-08-07T12:47:45;3.00;;;2.80;;
49458;SDS011;35354;51.296;16.924;2023-08-07T12:50:11;2.55;;;2.35;;
49458;SDS011;35354;51.296;16.924;2023-08-07T12:52:36;3.08;;;2.55;;
49458;SDS011;35354;51.296;16.924;2023-08-07T12:55:01;2.38;;;2.10;;
49458;SDS011;35354;51.296;16.924;2023-08-07T12:57:27;4.38;;;2.35;;
49458;SDS011;35354;51.296;16.924;2023-08-07T12:59:52;2.97;;;2.22;;
49458;SDS011;35354;51.296;16.924;2023-08-07T13:02:17;2.30;;;1.80;;
49458;SDS011;35354;51.296;16.924;2023-08-07T13:04:43;2.50;;;2.30;;
49458;SDS011;35354;51.296;16.924;2023-08-07T13:07:08;2.50;;;2.30;;
49458;SDS011;35354;51.296;16.924;2023-08-07T13:09:34;2.75;;;2.00;;
49458;SDS011;35354;51.296;16.924;2023-08-07T13:11:59;3.17;;;2.33;;
49458;SDS011;35354;51.296;16.924;2023-08-07T13:14:24;2.88;;;2.13;;
49458;SDS011;35354;51.296;16.924;2023-08-07T13:16:49;2.20;;;2.00;;
49458;SDS011;35354;51.296;16.924;2023-08-07T13:19:16;2.08;;;1.88;;
49458;SDS011;35354;51.296;16.924;2023-08-07T13:21:41;2.85;;;1.98;;
49458;SDS011;35354;51.296;16.924;2023-08-07T13:24:07;2.83;;;2.55;;
49458;SDS011;35354;51.296;16.924;2023-08-07T13:26:32;3.67;;;2.67;;
49458;SDS011;35354;51.296;16.924;2023-08-07T13:28:57;2.40;;;2.20;;
49458;SDS011;35354;51.296;16.924;2023-08-07T13:31:23;4.03;;;2.40;;
49458;SDS011;35354;51.296;16.924;2023-08-07T13:33:48;2.58;;;2.38;;
49458;SDS011;35354;51.296;16.924;2023-08-07T13:36:13;2.50;;;2.15;;
49458;SDS011;35354;51.296;16.924;2023-08-07T13:38:39;2.88;;;2.58;;
49458;SDS011;35354;51.296;16.924;2023-08-07T13:41:04;3.38;;;2.33;;
49458;SDS011;35354;51.296;16.924;2023-08-07T13:43:29;2.38;;;2.17;;
49458;SDS011;35354;51.296;16.924;2023-08-07T13:45:55;1.95;;;1.85;;
49458;SDS011;35354;51.296;16.924;2023-08-07T13:48:20;2.60;;;2.28;;
49458;SDS011;35354;51.296;16.924;2023-08-07T13:50:46;2.30;;;2.10;;
49458;SDS011;35354;51.296;16.924;2023-08-07T13:53:12;2.38;;;2.17;;
49458;SDS011;35354;51.296;16.924;2023-08-07T13:55:37;2.88;;;2.20;;
49458;SDS011;35354;51.296;16.924;2023-08-07T13:58:05;3.17;;;2.88;;
49458;SDS011;35354;51.296;16.924;2023-08-07T14:00:31;2.78;;;2.42;;
49458;SDS011;35354;51.296;16.924;2023-08-07T14:02:59;3.60;;;2.10;;
49458;SDS011;35354;51.296;16.924;2023-08-07T14:05:24;3.03;;;2.78;;
49458;SDS011;35354;51.296;16.924;2023-08-07T14:07:49;3.63;;;2.20;;
49458;SDS011;35354;51.296;16.924;2023-08-07T14:10:15;2.92;;;2.28;;
49458;SDS011;35354;51.296;16.924;2023-08-07T14:12:40;2.30;;;2.10;;
49458;SDS011;35354;51.296;16.924;2023-08-07T14:15:06;2.03;;;1.83;;
49458;SDS011;35354;51.296;16.924;2023-08-07T14:17:31;1.85;;;1.75;;
49458;SDS011;35354;51.296;16.924;2023-08-07T14:19:57;2.22;;;1.80;;
49458;SDS011;35354;51.296;16.924;2023-08-07T14:22:22;2.95;;;1.98;;
49458;SDS011;35354;51.296;16.924;2023-08-07T14:24:47;2.70;;;1.70;;
49458;SDS011;35354;51.296;16.924;2023-08-07T14:27:13;3.75;;;1.80;;
49458;SDS011;35354;51.296;16.924;2023-08-07T14:29:38;2.90;;;2.15;;
49458;SDS011;35354;51.296;16.924;2023-08-07T14:32:03;1.73;;;1.60;;
49458;SDS011;35354;51.296;16.924;2023-08-07T14:34:29;2.72;;;2.13;;
49458;SDS011;35354;51.296;16.924;2023-08-07T14:36:54;3.47;;;1.88;;
49458;SDS011;35354;51.296;16.924;2023-08-07T14:39:20;2.92;;;1.83;;
49458;SDS011;35354;51.296;16.924;2023-08-07T14:41:46;3.38;;;1.80;;